createdAt,value
2022-08-18T00:02:28.772Z,16.13
2022-08-18T00:04:59.075Z,16.73
2022-08-18T00:07:30.714Z,16.10
2022-08-18T00:10:00.303Z,19.35
2022-08-18T00:12:31.170Z,20.95
2022-08-18T00:14:59.749Z,16.05
2022-08-18T00:17:28.344Z,16.50
2022-08-18T00:19:56.793Z,15.60
2022-08-18T00:22:25.371Z,14.73
2022-08-18T00:24:57.186Z,14.93
2022-08-18T00:27:29.035Z,13.63
2022-08-18T00:30:01.336Z,15.60
2022-08-18T00:35:22.251Z,18.58
2022-08-18T00:37:50.760Z,16.58
2022-08-18T00:40:23.421Z,15.20
2022-08-18T00:42:56.704Z,17.83
2022-08-18T00:45:27.913Z,15.77
2022-08-18T00:47:56.785Z,17.77
2022-08-18T00:50:35.778Z,18.17
2022-08-18T00:53:13.069Z,20.45
2022-08-18T00:55:49.281Z,21.58
2022-08-18T00:58:37.127Z,26.67
2022-08-18T01:01:07.576Z,53.55
2022-08-18T01:03:39.273Z,82.85
2022-08-18T01:06:22.979Z,41.15
2022-08-18T01:08:51.401Z,33.80
2022-08-18T01:11:20.708Z,58.47
2022-08-18T01:13:49.042Z,76.82
2022-08-18T01:16:18.440Z,86.55
2022-08-18T01:18:46.852Z,78.50
2022-08-18T01:21:26.177Z,64.75
2022-08-18T01:23:55.375Z,33.38
2022-08-18T01:26:27.387Z,24.33
2022-08-18T01:31:39.051Z,19.38
2022-08-18T01:34:09.992Z,20.45
2022-08-18T01:36:41.243Z,19.33
2022-08-18T01:39:12.021Z,20.20
2022-08-18T01:41:41.688Z,23.23
2022-08-18T01:44:09.952Z,25.20
2022-08-18T01:46:40.917Z,26.52
2022-08-18T01:49:11.056Z,23.00
2022-08-18T01:51:40.912Z,25.33
2022-08-18T01:54:15.021Z,26.60
2022-08-18T01:56:44.204Z,30.58
2022-08-18T01:59:12.820Z,28.70
2022-08-18T02:01:50.340Z,31.60
2022-08-18T02:04:40.847Z,31.55
2022-08-18T02:07:12.010Z,28.42
2022-08-18T02:09:42.498Z,29.27
2022-08-18T02:12:13.705Z,21.00
2022-08-18T02:14:42.236Z,20.92
2022-08-18T02:17:12.775Z,18.70
2022-08-18T02:19:46.880Z,16.58
2022-08-18T02:22:20.533Z,15.73
2022-08-18T02:24:49.252Z,16.00
2022-08-18T02:27:17.968Z,15.80
2022-08-18T02:29:46.290Z,15.13
2022-08-18T02:32:14.454Z,16.75
2022-08-18T02:34:42.811Z,16.88
2022-08-18T02:37:15.007Z,17.40
2022-08-18T02:39:44.259Z,16.42
2022-08-18T02:42:15.955Z,15.63
2022-08-18T02:44:44.469Z,16.88
2022-08-18T02:47:12.610Z,20.95
2022-08-18T02:49:41.543Z,26.30
2022-08-18T02:52:10.254Z,20.23
2022-08-18T02:54:38.464Z,18.80
2022-08-18T02:57:10.891Z,21.40
2022-08-18T02:59:41.027Z,26.08
2022-08-18T03:02:10.406Z,22.75
2022-08-18T03:04:38.781Z,21.75
2022-08-18T03:07:08.470Z,17.05
2022-08-18T03:09:37.234Z,22.70
2022-08-18T03:12:06.042Z,22.17
2022-08-18T03:14:34.870Z,26.70
2022-08-18T03:17:06.604Z,26.85
2022-08-18T03:19:35.121Z,22.92
2022-08-18T03:22:03.748Z,47.88
2022-08-18T03:24:33.195Z,26.92
2022-08-18T03:27:04.517Z,24.30
2022-08-18T03:29:33.575Z,24.43
2022-08-18T03:32:03.822Z,20.23
2022-08-18T03:34:32.223Z,17.52
2022-08-18T03:37:00.639Z,19.00
2022-08-18T03:39:29.603Z,17.80
2022-08-18T03:42:01.694Z,19.08
2022-08-18T03:44:33.305Z,17.35
2022-08-18T03:47:02.389Z,16.80
2022-08-18T03:49:30.899Z,19.20
2022-08-18T03:51:59.251Z,18.75
2022-08-18T03:54:27.783Z,15.68
2022-08-18T03:56:56.355Z,14.25
2022-08-18T03:59:26.607Z,14.85
2022-08-18T04:01:56.027Z,19.05
2022-08-18T04:04:26.778Z,25.88
2022-08-18T04:07:00.883Z,23.65
2022-08-18T04:09:31.013Z,24.20
2022-08-18T04:12:03.722Z,24.42
2022-08-18T04:14:34.310Z,20.98
2022-08-18T04:17:02.567Z,17.58
2022-08-18T04:19:30.907Z,17.15
2022-08-18T04:21:59.026Z,16.05
2022-08-18T04:24:31.938Z,17.58
2022-08-18T04:27:02.762Z,18.77
2022-08-18T04:29:31.286Z,23.83
2022-08-18T04:32:02.358Z,23.75
2022-08-18T04:34:31.131Z,24.23
2022-08-18T04:36:59.554Z,25.70
2022-08-18T04:39:27.722Z,22.02
2022-08-18T04:41:56.890Z,19.23
2022-08-18T04:44:25.405Z,19.58
2022-08-18T04:46:54.976Z,23.27
2022-08-18T04:49:26.453Z,31.95
2022-08-18T04:52:36.588Z,19.83
2022-08-18T04:54:44.195Z,20.02
2022-08-18T04:57:20.726Z,16.85
2022-08-18T04:59:50.616Z,14.45
2022-08-18T05:02:20.967Z,14.82
2022-08-18T05:04:49.263Z,14.15
2022-08-18T05:07:21.084Z,15.18
2022-08-18T05:09:49.769Z,17.17
2022-08-18T05:12:17.954Z,18.85
2022-08-18T05:14:48.891Z,19.50
2022-08-18T05:17:17.329Z,23.85
2022-08-18T05:19:45.673Z,28.45
2022-08-18T05:22:15.382Z,27.65
2022-08-18T05:24:44.846Z,26.65
2022-08-18T05:27:13.784Z,27.08
2022-08-18T05:29:45.788Z,24.75
2022-08-18T05:32:38.352Z,24.05
2022-08-18T05:35:11.319Z,23.90
2022-08-18T05:38:26.894Z,22.40
2022-08-18T05:41:14.705Z,22.60
2022-08-18T05:43:51.689Z,22.42
2022-08-18T05:46:26.733Z,23.08
2022-08-18T05:48:55.131Z,25.00
2022-08-18T05:51:45.527Z,22.67
2022-08-18T05:54:17.173Z,21.75
2022-08-18T05:56:47.568Z,21.73
2022-08-18T05:59:29.071Z,22.83
2022-08-18T06:02:06.017Z,22.97
2022-08-18T06:04:46.302Z,23.20
2022-08-18T06:07:19.294Z,23.20
2022-08-18T06:09:55.530Z,22.40
2022-08-18T06:12:40.214Z,22.33
2022-08-18T06:15:19.507Z,23.25
2022-08-18T06:18:29.616Z,23.08
2022-08-18T06:21:22.875Z,22.95
2022-08-18T06:23:55.911Z,22.75
2022-08-18T06:26:26.740Z,23.03
2022-08-18T06:29:19.301Z,22.80
2022-08-18T06:34:52.029Z,23.50
2022-08-18T06:37:46.147Z,23.58
2022-08-18T06:40:14.459Z,24.27
2022-08-18T06:42:42.954Z,21.88
2022-08-18T06:45:13.667Z,23.30
2022-08-18T06:48:22.865Z,23.60
2022-08-18T06:51:00.330Z,23.85
2022-08-18T06:53:55.775Z,22.88
2022-08-18T06:56:27.053Z,24.13
2022-08-18T06:58:56.169Z,25.10
2022-08-18T07:01:25.659Z,24.88
2022-08-18T07:03:56.930Z,23.65
2022-08-18T07:06:31.668Z,27.00
2022-08-18T07:09:25.134Z,27.27
2022-08-18T07:12:09.069Z,27.58
2022-08-18T07:14:47.084Z,27.52
2022-08-18T07:17:22.290Z,27.48
2022-08-18T07:20:23.067Z,24.73
2022-08-18T07:23:08.304Z,21.88
2022-08-18T07:25:43.675Z,18.95
2022-08-18T07:28:31.189Z,18.08
2022-08-18T07:31:34.192Z,20.60
2022-08-18T07:34:14.005Z,18.27
2022-08-18T07:37:09.345Z,18.50
2022-08-18T07:40:02.387Z,18.67
2022-08-18T07:42:54.512Z,18.90
2022-08-18T07:45:31.927Z,23.50
2022-08-18T07:48:41.573Z,19.83
2022-08-18T07:51:33.308Z,22.77
2022-08-18T07:54:47.533Z,25.33
2022-08-18T07:57:27.128Z,18.70
2022-08-18T08:00:01.494Z,15.90
2022-08-18T08:02:39.567Z,17.35
2022-08-18T08:05:20.027Z,25.58
2022-08-18T08:07:55.837Z,21.33
2022-08-18T08:10:31.118Z,15.35
2022-08-18T08:13:37.256Z,16.17
2022-08-18T08:16:34.500Z,18.35
2022-08-18T08:19:15.165Z,20.00
2022-08-18T08:22:04.704Z,20.58
2022-08-18T08:25:42.880Z,19.30
2022-08-18T08:28:34.242Z,15.65
2022-08-18T08:31:33.331Z,13.90
2022-08-18T08:34:27.696Z,14.60
2022-08-18T08:37:06.692Z,14.63
2022-08-18T08:39:47.517Z,14.00
2022-08-18T08:42:31.429Z,13.50
2022-08-18T08:45:11.582Z,13.98
2022-08-18T08:48:08.763Z,13.38
2022-08-18T08:51:02.084Z,15.75
2022-08-18T08:53:36.522Z,17.23
2022-08-18T08:56:10.403Z,13.90
2022-08-18T08:58:57.856Z,14.55
2022-08-18T09:01:40.202Z,13.82
2022-08-18T09:04:29.915Z,16.55
2022-08-18T09:07:28.696Z,14.32
2022-08-18T09:10:52.658Z,12.63
2022-08-18T09:13:45.393Z,12.70
2022-08-18T09:16:22.391Z,12.95
2022-08-18T09:19:29.893Z,17.95
2022-08-18T09:22:05.152Z,12.88
2022-08-18T09:24:51.478Z,19.13
2022-08-18T09:28:09.463Z,23.75
2022-08-18T09:30:42.164Z,22.25
2022-08-18T09:33:31.683Z,17.75
2022-08-18T09:36:21.591Z,16.33
2022-08-18T09:39:03.127Z,16.27
2022-08-18T09:41:45.906Z,17.45
2022-08-18T09:44:49.688Z,12.73
2022-08-18T09:47:24.064Z,14.65
2022-08-18T09:49:58.852Z,13.88
2022-08-18T09:52:37.680Z,11.02
2022-08-18T09:55:19.790Z,13.48
2022-08-18T09:58:05.723Z,12.55
2022-08-18T10:00:35.482Z,11.18
2022-08-18T10:03:16.855Z,11.82
2022-08-18T10:06:12.425Z,10.32
2022-08-18T10:08:47.986Z,10.55
2022-08-18T10:11:50.885Z,12.02
2022-08-18T10:14:52.260Z,11.10
2022-08-18T10:17:50.268Z,10.48
2022-08-18T10:20:57.193Z,11.02
2022-08-18T10:24:08.020Z,10.25
2022-08-18T10:26:54.821Z,11.77
2022-08-18T10:29:28.554Z,10.50
2022-08-18T10:34:51.710Z,11.23
2022-08-18T10:37:49.161Z,9.77
2022-08-18T10:40:40.028Z,10.80
2022-08-18T10:43:46.026Z,10.48
2022-08-18T10:46:27.724Z,9.77
2022-08-18T10:49:20.789Z,9.27
2022-08-18T10:52:11.763Z,10.27
2022-08-18T10:55:02.587Z,9.38
2022-08-18T10:57:51.827Z,10.57
2022-08-18T11:00:25.223Z,9.43
2022-08-18T11:03:51.558Z,10.15
2022-08-18T11:06:26.400Z,10.05
2022-08-18T11:09:02.365Z,9.63
2022-08-18T11:12:00.893Z,8.05
2022-08-18T11:14:52.436Z,8.63
2022-08-18T11:17:48.903Z,8.55
2022-08-18T11:20:22.013Z,9.13
2022-08-18T11:22:57.063Z,8.93
2022-08-18T11:25:32.245Z,8.77
2022-08-18T11:28:02.591Z,8.63
2022-08-18T11:30:40.141Z,8.23
2022-08-18T11:33:14.439Z,8.80
2022-08-18T11:35:56.179Z,9.63
2022-08-18T11:38:26.210Z,8.30
2022-08-18T11:41:53.466Z,10.05
2022-08-18T11:44:25.212Z,7.97
2022-08-18T11:49:34.109Z,8.90
2022-08-18T11:52:33.118Z,9.63
2022-08-18T11:55:24.523Z,23.42
2022-08-18T11:57:59.016Z,10.35
2022-08-18T12:00:57.214Z,8.77
2022-08-18T12:03:47.673Z,8.73
2022-08-18T12:06:26.955Z,10.38
2022-08-18T12:09:04.535Z,8.55
2022-08-18T12:11:49.406Z,7.13
2022-08-18T12:14:31.270Z,7.78
2022-08-18T12:17:03.732Z,10.43
2022-08-18T12:22:29.374Z,9.52
2022-08-18T12:24:59.034Z,9.52
2022-08-18T12:27:31.900Z,8.15
2022-08-18T12:30:01.666Z,8.80
2022-08-18T12:38:13.178Z,10.15
2022-08-18T12:40:44.138Z,7.72
2022-08-18T12:43:13.188Z,8.30
2022-08-18T12:45:42.327Z,9.27
2022-08-18T12:48:10.943Z,9.15
2022-08-18T12:53:38.357Z,8.20
2022-08-18T12:56:23.477Z,10.85
2022-08-18T12:58:54.284Z,11.57
2022-08-18T13:01:23.794Z,9.02
2022-08-18T13:04:11.029Z,10.90
2022-08-18T13:06:59.876Z,10.00
2022-08-18T13:09:52.903Z,10.20
2022-08-18T13:12:24.075Z,16.75
2022-08-18T13:14:53.261Z,10.15
2022-08-18T13:17:32.097Z,11.27
2022-08-18T13:20:14.397Z,10.63
2022-08-18T13:22:44.866Z,8.30
2022-08-18T13:25:32.071Z,9.07
2022-08-18T13:28:05.952Z,10.45
2022-08-18T13:30:35.584Z,9.00
2022-08-18T13:33:06.088Z,25.65
2022-08-18T13:35:55.013Z,15.93
2022-08-18T13:38:27.278Z,12.23
2022-08-18T13:41:01.185Z,13.52
2022-08-18T13:43:37.242Z,13.10
2022-08-18T13:46:09.836Z,9.93
2022-08-18T13:48:41.961Z,10.60
2022-08-18T13:51:16.226Z,10.80
2022-08-18T13:53:59.019Z,12.85
2022-08-18T13:56:36.724Z,9.68
2022-08-18T13:59:08.033Z,10.40
2022-08-18T14:01:45.267Z,11.38
2022-08-18T14:04:22.388Z,12.65
2022-08-18T14:06:57.133Z,13.32
2022-08-18T14:09:36.703Z,13.25
2022-08-18T14:12:22.760Z,13.32
2022-08-18T14:14:55.212Z,10.50
2022-08-18T14:17:25.343Z,12.05
2022-08-18T14:19:54.951Z,16.23
2022-08-18T14:22:25.559Z,12.83
2022-08-18T14:24:55.074Z,13.38
2022-08-18T14:27:36.157Z,14.73
2022-08-18T14:30:11.277Z,17.38
2022-08-18T14:32:48.705Z,13.15
2022-08-18T14:35:33.818Z,14.10
2022-08-18T14:38:07.794Z,13.48
2022-08-18T14:42:40.933Z,12.25
2022-08-18T16:11:19.351Z,9.32
2022-08-18T16:14:00.363Z,10.38
2022-08-18T16:16:36.310Z,10.75
2022-08-18T16:19:08.426Z,12.07
2022-08-18T16:21:37.637Z,10.38
2022-08-18T16:24:07.437Z,15.85
2022-08-18T16:26:36.098Z,9.77
2022-08-18T16:29:04.886Z,9.25
2022-08-18T16:31:33.856Z,10.00
2022-08-18T16:34:02.817Z,10.35
2022-08-18T16:36:32.614Z,11.25
2022-08-18T16:39:04.690Z,11.68
2022-08-18T16:41:35.874Z,14.20
2022-08-18T16:44:04.674Z,16.08
2022-08-18T16:46:33.135Z,13.88
2022-08-18T16:49:01.592Z,10.95
2022-08-18T16:51:30.213Z,12.80
2022-08-18T16:54:00.508Z,11.95
2022-08-18T16:56:31.748Z,10.40
2022-08-18T16:59:00.940Z,10.03
2022-08-18T17:01:33.722Z,11.18
2022-08-18T17:04:21.053Z,10.75
2022-08-18T17:09:19.098Z,9.88
2022-08-18T17:11:51.959Z,10.20
2022-08-18T17:14:26.335Z,8.90
2022-08-18T17:16:55.643Z,9.45
2022-08-18T17:19:27.429Z,11.50
2022-08-18T17:21:55.853Z,10.98
2022-08-18T17:24:31.975Z,8.85
2022-08-18T17:27:26.142Z,11.68
2022-08-18T17:29:58.563Z,10.07
2022-08-18T17:33:19.476Z,12.77
2022-08-18T17:35:48.181Z,10.88
2022-08-18T17:38:27.685Z,9.43
2022-08-18T17:40:58.559Z,8.07
2022-08-18T17:43:32.512Z,7.78
2022-08-18T17:46:21.209Z,7.80
2022-08-18T17:49:01.476Z,9.25
2022-08-18T17:51:43.599Z,12.20
2022-08-18T17:54:33.542Z,11.63
2022-08-18T17:57:11.205Z,9.35
2022-08-18T17:59:51.904Z,9.50
2022-08-18T18:02:28.815Z,8.35
2022-08-18T18:05:01.321Z,7.32
2022-08-18T18:07:31.265Z,9.38
2022-08-18T18:10:07.265Z,9.98
2022-08-18T18:12:37.458Z,37.88
2022-08-18T18:15:10.614Z,96.63
2022-08-18T18:17:41.520Z,19.90
2022-08-18T18:20:33.733Z,45.67
2022-08-18T18:25:51.632Z,46.75
2022-08-18T18:28:30.716Z,25.85
2022-08-18T18:31:16.052Z,25.33
2022-08-18T18:33:45.783Z,24.75
2022-08-18T18:36:32.213Z,20.20
2022-08-18T18:39:22.811Z,11.65
2022-08-18T18:42:24.375Z,16.42
2022-08-18T18:44:59.429Z,129.90
2022-08-18T18:47:55.449Z,67.70
2022-08-18T18:50:53.087Z,26.38
2022-08-18T18:54:18.635Z,28.10
2022-08-18T18:56:57.354Z,40.35
2022-08-18T18:59:52.917Z,45.80
2022-08-18T19:02:40.053Z,24.52
2022-08-18T19:05:21.121Z,21.02
2022-08-18T19:08:25.402Z,30.00
2022-08-18T19:11:03.619Z,28.23
2022-08-18T19:13:43.836Z,20.60
2022-08-18T19:16:36.737Z,22.95
2022-08-18T19:19:36.834Z,20.77
2022-08-18T19:22:19.009Z,17.33
2022-08-18T19:25:25.954Z,13.25
2022-08-18T19:28:09.665Z,13.75
2022-08-18T19:30:42.188Z,15.02
2022-08-18T19:33:15.250Z,42.53
2022-08-18T19:36:01.189Z,361.90
2022-08-18T19:38:45.509Z,129.25
2022-08-18T19:41:49.723Z,69.88
2022-08-18T19:44:39.072Z,97.50
2022-08-18T19:47:17.274Z,82.30
2022-08-18T19:50:31.985Z,110.65
2022-08-18T19:53:41.946Z,154.15
2022-08-18T19:56:21.428Z,127.13
2022-08-18T19:59:18.499Z,120.75
2022-08-18T20:02:06.741Z,80.95
2022-08-18T20:04:51.548Z,35.58
2022-08-18T20:07:46.706Z,42.13
2022-08-18T20:10:48.500Z,46.05
2022-08-18T20:13:34.676Z,31.63
2022-08-18T20:16:05.784Z,37.20
2022-08-18T20:18:37.916Z,29.90
2022-08-18T20:21:15.369Z,23.70
2022-08-18T20:24:01.284Z,25.45
2022-08-18T20:26:38.936Z,21.58
2022-08-18T20:29:12.851Z,15.82
2022-08-18T20:31:55.578Z,19.70
2022-08-18T20:34:29.776Z,41.63
2022-08-18T20:37:00.974Z,53.13
2022-08-18T20:39:50.188Z,53.55
2022-08-18T20:42:24.694Z,130.48
2022-08-18T20:45:14.823Z,93.40
2022-08-18T20:48:06.335Z,74.97
2022-08-18T20:50:46.677Z,41.20
2022-08-18T20:53:39.599Z,44.38
2022-08-18T20:56:31.650Z,38.72
2022-08-18T20:59:14.624Z,45.75
2022-08-18T21:01:43.176Z,38.35
2022-08-18T21:04:11.760Z,32.03
2022-08-18T21:06:43.047Z,47.80
2022-08-18T21:09:18.657Z,39.80
2022-08-18T21:11:48.631Z,30.75
2022-08-18T21:14:29.839Z,32.72
2022-08-18T21:16:58.649Z,22.93
2022-08-18T21:19:29.556Z,39.28
2022-08-18T21:22:00.883Z,34.67
2022-08-18T21:24:34.465Z,38.87
2022-08-18T21:27:34.556Z,32.47
2022-08-18T21:30:07.928Z,26.58
2022-08-18T21:32:38.081Z,28.02
2022-08-18T21:35:34.294Z,38.58
2022-08-18T21:38:06.691Z,33.88
2022-08-18T21:43:08.361Z,30.48
2022-08-18T21:45:56.038Z,61.15
2022-08-18T21:48:24.747Z,35.40
2022-08-18T21:50:56.901Z,33.22
2022-08-18T21:53:35.621Z,39.20
2022-08-18T21:56:04.189Z,34.72
2022-08-18T21:58:38.499Z,42.15
2022-08-18T22:01:09.660Z,48.20
2022-08-18T22:03:54.594Z,44.70
2022-08-18T22:06:48.410Z,33.38
2022-08-18T22:09:21.534Z,34.63
2022-08-18T22:12:01.297Z,44.67
2022-08-18T22:14:53.838Z,49.13
2022-08-18T22:17:34.404Z,31.10
2022-08-18T22:20:41.794Z,33.75
2022-08-18T22:23:20.354Z,49.03
2022-08-18T22:25:48.689Z,22.85
2022-08-18T22:28:23.152Z,35.55
2022-08-18T22:30:51.432Z,24.42
2022-08-18T22:33:19.738Z,21.95
2022-08-18T22:35:55.627Z,25.98
2022-08-18T22:38:26.976Z,20.75
2022-08-18T22:40:55.273Z,21.07
2022-08-18T22:43:23.714Z,17.20
2022-08-18T22:45:52.236Z,16.13
2022-08-18T22:48:20.545Z,14.18
2022-08-18T22:50:48.851Z,13.18
2022-08-18T22:53:19.041Z,13.60
2022-08-18T22:55:47.422Z,12.05
2022-08-18T22:58:16.886Z,12.40
2022-08-18T23:00:50.522Z,12.45
2022-08-18T23:03:20.459Z,13.20
2022-08-18T23:05:48.731Z,12.80
2022-08-18T23:08:17.117Z,10.48
2022-08-18T23:10:45.265Z,11.00
2022-08-18T23:13:13.683Z,12.18
2022-08-18T23:15:42.048Z,13.63
2022-08-18T23:18:10.823Z,16.52
2022-08-18T23:20:41.011Z,14.50
2022-08-18T23:23:09.420Z,10.23
2022-08-18T23:25:37.700Z,12.60
2022-08-18T23:28:06.052Z,13.32
2022-08-18T23:30:34.277Z,12.35
2022-08-18T23:33:02.554Z,10.45
2022-08-18T23:35:31.093Z,10.10
2022-08-18T23:37:59.352Z,11.90
2022-08-18T23:40:27.736Z,11.40
2022-08-18T23:42:56.574Z,11.68
2022-08-18T23:45:25.477Z,12.40
2022-08-18T23:47:53.629Z,12.77
2022-08-18T23:50:26.511Z,14.15
2022-08-18T23:52:59.321Z,18.25
2022-08-18T23:55:27.645Z,11.30
2022-08-18T23:57:56.368Z,10.90
